sensor_id;sensor_type;location;lat;lon;timestamp;P1;durP1;ratioP1;P2;durP2;ratioP2
70367;SDS011;57789;53.868;10.728;2023-08-01T00:02:10;3.43;;;1.30;;
70367;SDS011;57789;53.868;10.728;2023-08-01T00:04:36;3.37;;;1.27;;
70367;SDS011;57789;53.868;10.728;2023-08-01T00:07:01;1.13;;;0.80;;
70367;SDS011;57789;53.868;10.728;2023-08-01T00:09:27;1.63;;;1.30;;
70367;SDS011;57789;53.868;10.728;2023-08-01T00:11:53;6.77;;;1.60;;
70367;SDS011;57789;53.868;10.728;2023-08-01T00:14:20;5.30;;;2.13;;
70367;SDS011;57789;53.868;10.728;2023-08-01T00:16:49;1.20;;;1.10;;
70367;SDS011;57789;53.868;10.728;2023-08-01T00:19:18;3.40;;;1.00;;
70367;SDS011;57789;53.868;10.728;2023-08-01T00:21:44;1.17;;;1.07;;
70367;SDS011;57789;53.868;10.728;2023-08-01T00:24:09;1.47;;;1.27;;
70367;SDS011;57789;53.868;10.728;2023-08-01T00:26:35;2.03;;;1.40;;
70367;SDS011;57789;53.868;10.728;2023-08-01T00:29:01;1.77;;;1.10;;
70367;SDS011;57789;53.868;10.728;2023-08-01T00:31:26;1.30;;;0.90;;
70367;SDS011;57789;53.868;10.728;2023-08-01T00:33:52;1.10;;;1.00;;
70367;SDS011;57789;53.868;10.728;2023-08-01T00:36:18;2.13;;;0.97;;
70367;SDS011;57789;53.868;10.728;2023-08-01T00:38:43;2.80;;;1.60;;
70367;SDS011;57789;53.868;10.728;2023-08-01T00:41:09;2.43;;;0.87;;
70367;SDS011;57789;53.868;10.728;2023-08-01T00:43:35;6.20;;;1.00;;
70367;SDS011;57789;53.868;10.728;2023-08-01T00:46:03;1.00;;;0.80;;
70367;SDS011;57789;53.868;10.728;2023-08-01T00:48:30;1.43;;;0.90;;
70367;SDS011;57789;53.868;10.728;2023-08-01T00:51:02;0.90;;;0.80;;
70367;SDS011;57789;53.868;10.728;2023-08-01T00:53:29;0.97;;;0.87;;
70367;SDS011;57789;53.868;10.728;2023-08-01T00:55:56;0.80;;;0.67;;
70367;SDS011;57789;53.868;10.728;2023-08-01T00:58:23;2.10;;;1.00;;
70367;SDS011;57789;53.868;10.728;2023-08-01T01:00:48;1.10;;;0.70;;
70367;SDS011;57789;53.868;10.728;2023-08-01T01:03:14;0.70;;;0.70;;
70367;SDS011;57789;53.868;10.728;2023-08-01T01:06:04;0.97;;;0.80;;
70367;SDS011;57789;53.868;10.728;2023-08-01T01:08:47;1.43;;;0.83;;
70367;SDS011;57789;53.868;10.728;2023-08-01T01:11:13;6.93;;;1.10;;
70367;SDS011;57789;53.868;10.728;2023-08-01T01:13:39;0.80;;;0.70;;
70367;SDS011;57789;53.868;10.728;2023-08-01T01:16:05;0.70;;;0.70;;
70367;SDS011;57789;53.868;10.728;2023-08-01T01:18:30;1.10;;;0.90;;
70367;SDS011;57789;53.868;10.728;2023-08-01T01:20:56;0.90;;;0.90;;
70367;SDS011;57789;53.868;10.728;2023-08-01T01:23:22;0.80;;;0.73;;
70367;SDS011;57789;53.868;10.728;2023-08-01T01:25:49;1.00;;;0.70;;
70367;SDS011;57789;53.868;10.728;2023-08-01T01:28:16;1.10;;;0.80;;
70367;SDS011;57789;53.868;10.728;2023-08-01T01:30:43;2.50;;;0.93;;
70367;SDS011;57789;53.868;10.728;2023-08-01T01:33:10;1.23;;;0.90;;
70367;SDS011;57789;53.868;10.728;2023-08-01T01:35:36;1.10;;;0.87;;
70367;SDS011;57789;53.868;10.728;2023-08-01T01:38:02;1.47;;;0.80;;
70367;SDS011;57789;53.868;10.728;2023-08-01T01:40:31;1.10;;;1.00;;
70367;SDS011;57789;53.868;10.728;2023-08-01T01:42:58;0.83;;;0.83;;
70367;SDS011;57789;53.868;10.728;2023-08-01T01:45:25;0.83;;;0.73;;
70367;SDS011;57789;53.868;10.728;2023-08-01T01:47:50;2.23;;;0.87;;
70367;SDS011;57789;53.868;10.728;2023-08-01T01:50:16;2.07;;;1.23;;
70367;SDS011;57789;53.868;10.728;2023-08-01T01:52:43;2.93;;;1.20;;
70367;SDS011;57789;53.868;10.728;2023-08-01T01:55:12;1.57;;;1.00;;
70367;SDS011;57789;53.868;10.728;2023-08-01T01:57:38;1.20;;;0.90;;
70367;SDS011;57789;53.868;10.728;2023-08-01T02:00:04;2.00;;;1.37;;
70367;SDS011;57789;53.868;10.728;2023-08-01T02:02:30;1.40;;;1.20;;
70367;SDS011;57789;53.868;10.728;2023-08-01T02:04:56;1.70;;;1.60;;
70367;SDS011;57789;53.868;10.728;2023-08-01T02:07:22;1.53;;;1.40;;
70367;SDS011;57789;53.868;10.728;2023-08-01T02:09:48;2.63;;;1.97;;
70367;SDS011;57789;53.868;10.728;2023-08-01T02:12:13;1.80;;;1.60;;
70367;SDS011;57789;53.868;10.728;2023-08-01T02:14:40;3.90;;;2.20;;
70367;SDS011;57789;53.868;10.728;2023-08-01T02:17:06;1.93;;;1.70;;
70367;SDS011;57789;53.868;10.728;2023-08-01T02:19:32;4.43;;;2.57;;
70367;SDS011;57789;53.868;10.728;2023-08-01T02:21:58;1.90;;;1.70;;
70367;SDS011;57789;53.868;10.728;2023-08-01T02:24:24;8.10;;;1.90;;
70367;SDS011;57789;53.868;10.728;2023-08-01T02:26:50;1.80;;;1.70;;
70367;SDS011;57789;53.868;10.728;2023-08-01T02:29:15;2.30;;;1.57;;
70367;SDS011;57789;53.868;10.728;2023-08-01T02:31:41;3.17;;;1.87;;
70367;SDS011;57789;53.868;10.728;2023-08-01T02:34:07;2.40;;;2.07;;
70367;SDS011;57789;53.868;10.728;2023-08-01T02:36:34;3.60;;;1.77;;
70367;SDS011;57789;53.868;10.728;2023-08-01T02:38:59;20.20;;;13.17;;
70367;SDS011;57789;53.868;10.728;2023-08-01T02:41:25;9.73;;;5.17;;
70367;SDS011;57789;53.868;10.728;2023-08-01T02:43:51;25.47;;;16.67;;
70367;SDS011;57789;53.868;10.728;2023-08-01T02:46:17;46.27;;;31.87;;
70367;SDS011;57789;53.868;10.728;2023-08-01T02:48:42;9.40;;;6.07;;
70367;SDS011;57789;53.868;10.728;2023-08-01T02:51:08;3.07;;;2.77;;
70367;SDS011;57789;53.868;10.728;2023-08-01T02:53:35;5.13;;;3.60;;
70367;SDS011;57789;53.868;10.728;2023-08-01T02:56:01;14.00;;;8.23;;
70367;SDS011;57789;53.868;10.728;2023-08-01T02:58:28;7.20;;;4.60;;
70367;SDS011;57789;53.868;10.728;2023-08-01T03:00:53;5.50;;;2.67;;
70367;SDS011;57789;53.868;10.728;2023-08-01T03:03:19;5.03;;;3.20;;
70367;SDS011;57789;53.868;10.728;2023-08-01T03:05:45;5.70;;;3.67;;
70367;SDS011;57789;53.868;10.728;2023-08-01T03:08:10;6.07;;;4.47;;
70367;SDS011;57789;53.868;10.728;2023-08-01T03:10:36;4.13;;;3.70;;
70367;SDS011;57789;53.868;10.728;2023-08-01T03:13:02;5.43;;;4.20;;
70367;SDS011;57789;53.868;10.728;2023-08-01T03:15:28;13.70;;;8.43;;
70367;SDS011;57789;53.868;10.728;2023-08-01T03:17:53;24.07;;;14.33;;
70367;SDS011;57789;53.868;10.728;2023-08-01T03:20:19;7.77;;;5.60;;
70367;SDS011;57789;53.868;10.728;2023-08-01T03:22:45;6.93;;;5.50;;
70367;SDS011;57789;53.868;10.728;2023-08-01T03:25:10;12.60;;;8.70;;
70367;SDS011;57789;53.868;10.728;2023-08-01T03:27:36;19.47;;;13.07;;
70367;SDS011;57789;53.868;10.728;2023-08-01T03:30:03;9.97;;;6.50;;
70367;SDS011;57789;53.868;10.728;2023-08-01T03:32:29;18.03;;;9.23;;
70367;SDS011;57789;53.868;10.728;2023-08-01T03:34:55;6.33;;;5.60;;
70367;SDS011;57789;53.868;10.728;2023-08-01T03:37:21;9.17;;;6.17;;
70367;SDS011;57789;53.868;10.728;2023-08-01T03:39:47;3.37;;;3.07;;
70367;SDS011;57789;53.868;10.728;2023-08-01T03:42:12;5.90;;;4.60;;
70367;SDS011;57789;53.868;10.728;2023-08-01T03:44:39;7.40;;;6.27;;
70367;SDS011;57789;53.868;10.728;2023-08-01T03:47:05;6.43;;;5.37;;
70367;SDS011;57789;53.868;10.728;2023-08-01T03:49:31;15.80;;;10.07;;
70367;SDS011;57789;53.868;10.728;2023-08-01T03:51:57;10.17;;;8.27;;
70367;SDS011;57789;53.868;10.728;2023-08-01T03:54:24;14.70;;;10.50;;
70367;SDS011;57789;53.868;10.728;2023-08-01T03:56:50;26.00;;;16.93;;
70367;SDS011;57789;53.868;10.728;2023-08-01T03:59:17;22.63;;;18.10;;
70367;SDS011;57789;53.868;10.728;2023-08-01T04:01:43;23.53;;;16.07;;
70367;SDS011;57789;53.868;10.728;2023-08-01T04:04:09;15.23;;;11.03;;
70367;SDS011;57789;53.868;10.728;2023-08-01T04:06:35;9.93;;;7.10;;
70367;SDS011;57789;53.868;10.728;2023-08-01T04:09:01;21.40;;;14.57;;
70367;SDS011;57789;53.868;10.728;2023-08-01T04:11:28;10.30;;;8.60;;
70367;SDS011;57789;53.868;10.728;2023-08-01T04:13:55;7.37;;;5.30;;
70367;SDS011;57789;53.868;10.728;2023-08-01T04:16:21;57.03;;;38.20;;
70367;SDS011;57789;53.868;10.728;2023-08-01T04:18:47;11.40;;;6.83;;
70367;SDS011;57789;53.868;10.728;2023-08-01T04:21:13;32.20;;;21.80;;
70367;SDS011;57789;53.868;10.728;2023-08-01T04:23:39;34.70;;;25.27;;
70367;SDS011;57789;53.868;10.728;2023-08-01T04:26:07;23.90;;;16.00;;
70367;SDS011;57789;53.868;10.728;2023-08-01T04:28:33;16.23;;;10.70;;
70367;SDS011;57789;53.868;10.728;2023-08-01T04:31:00;23.13;;;7.40;;
70367;SDS011;57789;53.868;10.728;2023-08-01T04:33:25;13.07;;;7.80;;
70367;SDS011;57789;53.868;10.728;2023-08-01T04:35:51;8.30;;;6.97;;
70367;SDS011;57789;53.868;10.728;2023-08-01T04:38:17;21.10;;;14.13;;
70367;SDS011;57789;53.868;10.728;2023-08-01T04:40:43;7.80;;;6.23;;
70367;SDS011;57789;53.868;10.728;2023-08-01T04:43:09;9.23;;;6.17;;
70367;SDS011;57789;53.868;10.728;2023-08-01T04:45:37;6.63;;;4.97;;
70367;SDS011;57789;53.868;10.728;2023-08-01T04:48:03;14.50;;;7.30;;
70367;SDS011;57789;53.868;10.728;2023-08-01T04:50:29;8.80;;;5.27;;
70367;SDS011;57789;53.868;10.728;2023-08-01T04:52:55;5.90;;;5.07;;
70367;SDS011;57789;53.868;10.728;2023-08-01T04:55:20;7.10;;;6.23;;
70367;SDS011;57789;53.868;10.728;2023-08-01T04:57:46;12.17;;;8.90;;
70367;SDS011;57789;53.868;10.728;2023-08-01T05:00:12;10.73;;;4.63;;
70367;SDS011;57789;53.868;10.728;2023-08-01T05:02:38;9.97;;;6.73;;
70367;SDS011;57789;53.868;10.728;2023-08-01T05:05:04;12.73;;;5.53;;
70367;SDS011;57789;53.868;10.728;2023-08-01T05:07:30;7.97;;;5.50;;
70367;SDS011;57789;53.868;10.728;2023-08-01T05:09:56;9.70;;;5.37;;
70367;SDS011;57789;53.868;10.728;2023-08-01T05:12:22;6.33;;;5.50;;
70367;SDS011;57789;53.868;10.728;2023-08-01T05:14:47;10.50;;;5.80;;
70367;SDS011;57789;53.868;10.728;2023-08-01T05:17:13;7.73;;;5.80;;
70367;SDS011;57789;53.868;10.728;2023-08-01T05:19:39;6.60;;;5.00;;
70367;SDS011;57789;53.868;10.728;2023-08-01T05:22:05;6.40;;;5.27;;
70367;SDS011;57789;53.868;10.728;2023-08-01T05:24:30;11.83;;;6.00;;
70367;SDS011;57789;53.868;10.728;2023-08-01T05:26:57;5.83;;;5.17;;
70367;SDS011;57789;53.868;10.728;2023-08-01T05:29:23;9.97;;;5.87;;
70367;SDS011;57789;53.868;10.728;2023-08-01T05:31:49;9.20;;;5.80;;
70367;SDS011;57789;53.868;10.728;2023-08-01T05:34:15;6.30;;;5.70;;
70367;SDS011;57789;53.868;10.728;2023-08-01T05:36:41;7.10;;;5.77;;
70367;SDS011;57789;53.868;10.728;2023-08-01T05:39:07;8.30;;;6.27;;
70367;SDS011;57789;53.868;10.728;2023-08-01T05:41:32;8.60;;;5.40;;
70367;SDS011;57789;53.868;10.728;2023-08-01T05:43:58;6.67;;;6.00;;
70367;SDS011;57789;53.868;10.728;2023-08-01T05:46:24;9.60;;;5.80;;
70367;SDS011;57789;53.868;10.728;2023-08-01T05:48:49;6.50;;;5.90;;
70367;SDS011;57789;53.868;10.728;2023-08-01T05:51:15;9.83;;;5.87;;
70367;SDS011;57789;53.868;10.728;2023-08-01T05:53:41;8.73;;;5.97;;
70367;SDS011;57789;53.868;10.728;2023-08-01T05:56:06;6.60;;;6.00;;
70367;SDS011;57789;53.868;10.728;2023-08-01T05:58:32;7.77;;;6.17;;
70367;SDS011;57789;53.868;10.728;2023-08-01T06:00:58;7.73;;;5.80;;
70367;SDS011;57789;53.868;10.728;2023-08-01T06:03:24;8.27;;;6.17;;
70367;SDS011;57789;53.868;10.728;2023-08-01T06:05:50;11.27;;;6.30;;
70367;SDS011;57789;53.868;10.728;2023-08-01T06:08:16;10.60;;;6.60;;
70367;SDS011;57789;53.868;10.728;2023-08-01T06:10:42;10.30;;;6.60;;
70367;SDS011;57789;53.868;10.728;2023-08-01T06:13:08;13.10;;;6.53;;
70367;SDS011;57789;53.868;10.728;2023-08-01T06:15:33;10.43;;;6.20;;
70367;SDS011;57789;53.868;10.728;2023-08-01T06:17:59;12.40;;;6.67;;
70367;SDS011;57789;53.868;10.728;2023-08-01T06:20:27;11.60;;;5.87;;
70367;SDS011;57789;53.868;10.728;2023-08-01T06:22:52;13.73;;;6.70;;
70367;SDS011;57789;53.868;10.728;2023-08-01T06:25:18;9.00;;;5.83;;
70367;SDS011;57789;53.868;10.728;2023-08-01T06:27:46;11.73;;;7.07;;
70367;SDS011;57789;53.868;10.728;2023-08-01T06:30:13;17.00;;;8.27;;
70367;SDS011;57789;53.868;10.728;2023-08-01T06:32:43;6.30;;;5.70;;
70367;SDS011;57789;53.868;10.728;2023-08-01T06:35:09;10.83;;;7.07;;
70367;SDS011;57789;53.868;10.728;2023-08-01T06:37:35;9.50;;;6.47;;
70367;SDS011;57789;53.868;10.728;2023-08-01T06:40:01;8.67;;;6.13;;
70367;SDS011;57789;53.868;10.728;2023-08-01T06:42:28;14.17;;;6.63;;
70367;SDS011;57789;53.868;10.728;2023-08-01T06:44:54;9.93;;;7.23;;
70367;SDS011;57789;53.868;10.728;2023-08-01T06:47:20;14.07;;;8.30;;
70367;SDS011;57789;53.868;10.728;2023-08-01T06:49:46;9.30;;;6.80;;
70367;SDS011;57789;53.868;10.728;2023-08-01T06:52:12;7.67;;;6.07;;
70367;SDS011;57789;53.868;10.728;2023-08-01T06:54:37;7.47;;;5.97;;
70367;SDS011;57789;53.868;10.728;2023-08-01T06:57:05;7.97;;;5.80;;
70367;SDS011;57789;53.868;10.728;2023-08-01T06:59:34;15.00;;;6.57;;
70367;SDS011;57789;53.868;10.728;2023-08-01T07:02:00;8.77;;;5.97;;
70367;SDS011;57789;53.868;10.728;2023-08-01T07:04:26;9.77;;;5.70;;
70367;SDS011;57789;53.868;10.728;2023-08-01T07:06:52;6.70;;;5.20;;
70367;SDS011;57789;53.868;10.728;2023-08-01T07:09:18;12.00;;;5.50;;
70367;SDS011;57789;53.868;10.728;2023-08-01T07:11:44;8.60;;;4.60;;
70367;SDS011;57789;53.868;10.728;2023-08-01T07:14:10;10.50;;;5.10;;
70367;SDS011;57789;53.868;10.728;2023-08-01T07:16:37;10.80;;;5.10;;
70367;SDS011;57789;53.868;10.728;2023-08-01T07:19:03;6.93;;;4.50;;
70367;SDS011;57789;53.868;10.728;2023-08-01T07:21:29;7.20;;;4.80;;
70367;SDS011;57789;53.868;10.728;2023-08-01T07:23:55;7.47;;;4.30;;
70367;SDS011;57789;53.868;10.728;2023-08-01T07:26:27;17.07;;;4.83;;
70367;SDS011;57789;53.868;10.728;2023-08-01T07:28:54;12.47;;;4.50;;
70367;SDS011;57789;53.868;10.728;2023-08-01T07:31:20;9.20;;;5.13;;
70367;SDS011;57789;53.868;10.728;2023-08-01T07:33:46;7.13;;;3.47;;
70367;SDS011;57789;53.868;10.728;2023-08-01T07:36:12;6.73;;;3.63;;
70367;SDS011;57789;53.868;10.728;2023-08-01T07:38:38;9.00;;;3.67;;
70367;SDS011;57789;53.868;10.728;2023-08-01T07:41:05;5.63;;;4.20;;
70367;SDS011;57789;53.868;10.728;2023-08-01T07:43:32;4.70;;;4.20;;
70367;SDS011;57789;53.868;10.728;2023-08-01T07:45:58;5.97;;;3.70;;
70367;SDS011;57789;53.868;10.728;2023-08-01T07:48:25;10.53;;;4.43;;
70367;SDS011;57789;53.868;10.728;2023-08-01T07:50:51;14.43;;;4.23;;
70367;SDS011;57789;53.868;10.728;2023-08-01T07:53:17;5.80;;;3.93;;
70367;SDS011;57789;53.868;10.728;2023-08-01T07:55:43;5.13;;;3.90;;
70367;SDS011;57789;53.868;10.728;2023-08-01T07:58:09;6.90;;;4.50;;
70367;SDS011;57789;53.868;10.728;2023-08-01T08:00:35;6.90;;;4.50;;
70367;SDS011;57789;53.868;10.728;2023-08-01T08:03:01;8.27;;;4.30;;
70367;SDS011;57789;53.868;10.728;2023-08-01T08:05:26;7.13;;;4.00;;
70367;SDS011;57789;53.868;10.728;2023-08-01T08:07:52;6.80;;;4.40;;
70367;SDS011;57789;53.868;10.728;2023-08-01T08:10:18;5.97;;;4.00;;
70367;SDS011;57789;53.868;10.728;2023-08-01T08:12:44;11.10;;;4.30;;
70367;SDS011;57789;53.868;10.728;2023-08-01T08:15:09;3.90;;;3.50;;
70367;SDS011;57789;53.868;10.728;2023-08-01T08:17:36;9.97;;;4.00;;
70367;SDS011;57789;53.868;10.728;2023-08-01T08:20:02;12.17;;;3.43;;
70367;SDS011;57789;53.868;10.728;2023-08-01T08:22:28;9.40;;;3.73;;
70367;SDS011;57789;53.868;10.728;2023-08-01T08:24:54;6.67;;;3.30;;
70367;SDS011;57789;53.868;10.728;2023-08-01T08:27:20;8.30;;;3.30;;
70367;SDS011;57789;53.868;10.728;2023-08-01T08:29:46;10.67;;;3.43;;
70367;SDS011;57789;53.868;10.728;2023-08-01T08:32:12;4.83;;;2.67;;
70367;SDS011;57789;53.868;10.728;2023-08-01T08:34:39;10.80;;;3.23;;
70367;SDS011;57789;53.868;10.728;2023-08-01T08:37:04;5.60;;;3.00;;
70367;SDS011;57789;53.868;10.728;2023-08-01T08:39:30;8.20;;;2.90;;
70367;SDS011;57789;53.868;10.728;2023-08-01T08:41:57;6.73;;;3.00;;
70367;SDS011;57789;53.868;10.728;2023-08-01T08:44:24;7.67;;;3.20;;
70367;SDS011;57789;53.868;10.728;2023-08-01T08:46:51;6.40;;;2.90;;
70367;SDS011;57789;53.868;10.728;2023-08-01T08:49:18;6.50;;;2.93;;
70367;SDS011;57789;53.868;10.728;2023-08-01T08:51:48;8.33;;;2.90;;
70367;SDS011;57789;53.868;10.728;2023-08-01T08:54:15;7.23;;;2.20;;
70367;SDS011;57789;53.868;10.728;2023-08-01T08:56:41;6.93;;;2.70;;
70367;SDS011;57789;53.868;10.728;2023-08-01T08:59:08;3.73;;;2.30;;
70367;SDS011;57789;53.868;10.728;2023-08-01T09:01:35;10.40;;;2.97;;
70367;SDS011;57789;53.868;10.728;2023-08-01T09:04:05;6.00;;;3.63;;
70367;SDS011;57789;53.868;10.728;2023-08-01T09:06:35;12.23;;;3.30;;
70367;SDS011;57789;53.868;10.728;2023-08-01T09:09:24;7.30;;;2.57;;
70367;SDS011;57789;53.868;10.728;2023-08-01T09:11:56;8.63;;;3.53;;
70367;SDS011;57789;53.868;10.728;2023-08-01T09:14:25;8.23;;;3.10;;
70367;SDS011;57789;53.868;10.728;2023-08-01T09:16:50;5.50;;;2.70;;
70367;SDS011;57789;53.868;10.728;2023-08-01T09:19:19;6.57;;;2.93;;
70367;SDS011;57789;53.868;10.728;2023-08-01T09:21:47;5.70;;;2.60;;
70367;SDS011;57789;53.868;10.728;2023-08-01T09:24:17;5.90;;;2.40;;
70367;SDS011;57789;53.868;10.728;2023-08-01T09:26:48;9.60;;;3.30;;
70367;SDS011;57789;53.868;10.728;2023-08-01T09:29:17;4.80;;;2.60;;
70367;SDS011;57789;53.868;10.728;2023-08-01T09:31:45;8.47;;;2.10;;
70367;SDS011;57789;53.868;10.728;2023-08-01T09:34:19;6.30;;;3.17;;
70367;SDS011;57789;53.868;10.728;2023-08-01T09:36:45;4.13;;;2.93;;
70367;SDS011;57789;53.868;10.728;2023-08-01T09:39:16;4.03;;;2.77;;
70367;SDS011;57789;53.868;10.728;2023-08-01T09:41:56;7.80;;;2.67;;
70367;SDS011;57789;53.868;10.728;2023-08-01T09:44:23;4.20;;;2.40;;
70367;SDS011;57789;53.868;10.728;2023-08-01T09:46:57;12.63;;;3.10;;
70367;SDS011;57789;53.868;10.728;2023-08-01T09:49:28;9.13;;;3.93;;
70367;SDS011;57789;53.868;10.728;2023-08-01T09:51:55;7.03;;;2.60;;
70367;SDS011;57789;53.868;10.728;2023-08-01T09:54:22;6.47;;;2.93;;
70367;SDS011;57789;53.868;10.728;2023-08-01T09:56:50;8.43;;;2.70;;
70367;SDS011;57789;53.868;10.728;2023-08-01T09:59:18;3.90;;;2.60;;
70367;SDS011;57789;53.868;10.728;2023-08-01T10:01:49;8.27;;;3.10;;
70367;SDS011;57789;53.868;10.728;2023-08-01T10:04:29;10.53;;;1.97;;
70367;SDS011;57789;53.868;10.728;2023-08-01T10:07:00;5.57;;;2.80;;
70367;SDS011;57789;53.868;10.728;2023-08-01T10:09:37;4.70;;;2.13;;
70367;SDS011;57789;53.868;10.728;2023-08-01T10:12:07;10.23;;;2.63;;
70367;SDS011;57789;53.868;10.728;2023-08-01T10:14:44;3.80;;;2.40;;
70367;SDS011;57789;53.868;10.728;2023-08-01T10:17:19;5.67;;;2.33;;
70367;SDS011;57789;53.868;10.728;2023-08-01T10:19:47;4.93;;;1.90;;
70367;SDS011;57789;53.868;10.728;2023-08-01T10:22:16;2.57;;;1.23;;
70367;SDS011;57789;53.868;10.728;2023-08-01T10:24:45;3.53;;;1.47;;
70367;SDS011;57789;53.868;10.728;2023-08-01T10:27:18;2.77;;;1.70;;
70367;SDS011;57789;53.868;10.728;2023-08-01T10:30:00;4.57;;;1.73;;
70367;SDS011;57789;53.868;10.728;2023-08-01T10:32:32;6.47;;;2.00;;
70367;SDS011;57789;53.868;10.728;2023-08-01T10:34:59;3.00;;;1.50;;
70367;SDS011;57789;53.868;10.728;2023-08-01T10:37:27;4.70;;;2.03;;
70367;SDS011;57789;53.868;10.728;2023-08-01T10:40:12;4.93;;;2.20;;
70367;SDS011;57789;53.868;10.728;2023-08-01T10:42:43;4.23;;;2.10;;
70367;SDS011;57789;53.868;10.728;2023-08-01T10:45:24;3.83;;;1.90;;
70367;SDS011;57789;53.868;10.728;2023-08-01T10:47:52;5.43;;;2.70;;
70367;SDS011;57789;53.868;10.728;2023-08-01T10:50:18;5.17;;;1.90;;
70367;SDS011;57789;53.868;10.728;2023-08-01T10:52:45;3.63;;;2.27;;
70367;SDS011;57789;53.868;10.728;2023-08-01T10:55:12;5.93;;;2.10;;
70367;SDS011;57789;53.868;10.728;2023-08-01T10:57:40;4.10;;;1.60;;
70367;SDS011;57789;53.868;10.728;2023-08-01T11:00:15;3.37;;;1.50;;
70367;SDS011;57789;53.868;10.728;2023-08-01T11:02:50;3.93;;;1.50;;
70367;SDS011;57789;53.868;10.728;2023-08-01T11:05:18;5.03;;;1.80;;
70367;SDS011;57789;53.868;10.728;2023-08-01T11:07:54;2.30;;;1.53;;
70367;SDS011;57789;53.868;10.728;2023-08-01T11:10:23;4.03;;;1.30;;
70367;SDS011;57789;53.868;10.728;2023-08-01T11:13:12;4.63;;;1.73;;
70367;SDS011;57789;53.868;10.728;2023-08-01T11:15:38;2.47;;;1.47;;
70367;SDS011;57789;53.868;10.728;2023-08-01T11:18:04;7.30;;;3.10;;
70367;SDS011;57789;53.868;10.728;2023-08-01T11:20:30;2.10;;;1.20;;
70367;SDS011;57789;53.868;10.728;2023-08-01T11:22:56;3.80;;;2.03;;
70367;SDS011;57789;53.868;10.728;2023-08-01T11:25:33;6.80;;;2.10;;
70367;SDS011;57789;53.868;10.728;2023-08-01T11:28:05;4.80;;;1.43;;
70367;SDS011;57789;53.868;10.728;2023-08-01T11:30:32;2.47;;;1.50;;
70367;SDS011;57789;53.868;10.728;2023-08-01T11:33:01;3.00;;;1.30;;
70367;SDS011;57789;53.868;10.728;2023-08-01T11:35:37;2.83;;;1.43;;
70367;SDS011;57789;53.868;10.728;2023-08-01T11:38:04;6.00;;;1.00;;
70367;SDS011;57789;53.868;10.728;2023-08-01T11:40:31;2.33;;;0.90;;
70367;SDS011;57789;53.868;10.728;2023-08-01T11:42:57;2.40;;;0.90;;
70367;SDS011;57789;53.868;10.728;2023-08-01T11:45:23;3.03;;;1.13;;
70367;SDS011;57789;53.868;10.728;2023-08-01T11:47:50;2.07;;;1.17;;
70367;SDS011;57789;53.868;10.728;2023-08-01T11:50:20;3.20;;;1.00;;
70367;SDS011;57789;53.868;10.728;2023-08-01T11:52:48;2.80;;;0.80;;
70367;SDS011;57789;53.868;10.728;2023-08-01T11:55:20;2.20;;;0.87;;
70367;SDS011;57789;53.868;10.728;2023-08-01T11:57:54;3.70;;;0.93;;
70367;SDS011;57789;53.868;10.728;2023-08-01T12:00:27;1.67;;;1.10;;
70367;SDS011;57789;53.868;10.728;2023-08-01T12:03:06;3.60;;;2.60;;
70367;SDS011;57789;53.868;10.728;2023-08-01T12:05:38;4.90;;;0.83;;
70367;SDS011;57789;53.868;10.728;2023-08-01T12:08:12;2.50;;;0.90;;
70367;SDS011;57789;53.868;10.728;2023-08-01T12:10:40;2.43;;;0.80;;
70367;SDS011;57789;53.868;10.728;2023-08-01T12:13:07;3.37;;;1.20;;
70367;SDS011;57789;53.868;10.728;2023-08-01T12:15:47;6.37;;;3.60;;
70367;SDS011;57789;53.868;10.728;2023-08-01T12:18:23;3.10;;;1.20;;
70367;SDS011;57789;53.868;10.728;2023-08-01T12:20:54;11.50;;;4.70;;
70367;SDS011;57789;53.868;10.728;2023-08-01T12:23:20;4.93;;;1.53;;
70367;SDS011;57789;53.868;10.728;2023-08-01T12:25:47;5.73;;;1.10;;
70367;SDS011;57789;53.868;10.728;2023-08-01T12:28:13;2.73;;;1.90;;
70367;SDS011;57789;53.868;10.728;2023-08-01T12:30:39;3.20;;;1.30;;
70367;SDS011;57789;53.868;10.728;2023-08-01T12:33:08;1.60;;;1.20;;
70367;SDS011;57789;53.868;10.728;2023-08-01T12:35:38;1.90;;;1.20;;
70367;SDS011;57789;53.868;10.728;2023-08-01T12:38:05;2.07;;;1.10;;
70367;SDS011;57789;53.868;10.728;2023-08-01T12:40:30;1.33;;;1.03;;
70367;SDS011;57789;53.868;10.728;2023-08-01T12:42:56;2.57;;;1.40;;
70367;SDS011;57789;53.868;10.728;2023-08-01T12:45:22;3.37;;;1.67;;
70367;SDS011;57789;53.868;10.728;2023-08-01T12:47:48;4.00;;;1.30;;
70367;SDS011;57789;53.868;10.728;2023-08-01T12:50:14;3.23;;;1.50;;
70367;SDS011;57789;53.868;10.728;2023-08-01T12:52:43;1.97;;;1.40;;
70367;SDS011;57789;53.868;10.728;2023-08-01T12:55:08;1.87;;;1.00;;
70367;SDS011;57789;53.868;10.728;2023-08-01T12:57:34;2.20;;;1.03;;
70367;SDS011;57789;53.868;10.728;2023-08-01T13:00:00;2.03;;;1.00;;
70367;SDS011;57789;53.868;10.728;2023-08-01T13:02:26;1.57;;;1.13;;
70367;SDS011;57789;53.868;10.728;2023-08-01T13:04:52;1.30;;;0.90;;
70367;SDS011;57789;53.868;10.728;2023-08-01T13:07:18;2.47;;;0.90;;
70367;SDS011;57789;53.868;10.728;2023-08-01T13:09:44;4.23;;;1.43;;
70367;SDS011;57789;53.868;10.728;2023-08-01T13:12:10;4.20;;;1.77;;
70367;SDS011;57789;53.868;10.728;2023-08-01T13:14:35;1.93;;;1.20;;
70367;SDS011;57789;53.868;10.728;2023-08-01T13:17:01;2.13;;;1.40;;
70367;SDS011;57789;53.868;10.728;2023-08-01T13:19:27;2.20;;;1.60;;
70367;SDS011;57789;53.868;10.728;2023-08-01T13:21:53;2.20;;;1.40;;
70367;SDS011;57789;53.868;10.728;2023-08-01T13:24:19;6.60;;;2.10;;
70367;SDS011;57789;53.868;10.728;2023-08-01T13:26:45;1.97;;;1.00;;
70367;SDS011;57789;53.868;10.728;2023-08-01T13:29:10;2.90;;;1.50;;
70367;SDS011;57789;53.868;10.728;2023-08-01T13:31:36;4.43;;;1.00;;
70367;SDS011;57789;53.868;10.728;2023-08-01T13:34:02;3.90;;;1.00;;
70367;SDS011;57789;53.868;10.728;2023-08-01T13:36:27;1.07;;;0.70;;
70367;SDS011;57789;53.868;10.728;2023-08-01T13:38:53;1.33;;;0.70;;
70367;SDS011;57789;53.868;10.728;2023-08-01T13:41:19;2.70;;;1.10;;
70367;SDS011;57789;53.868;10.728;2023-08-01T13:43:44;0.80;;;0.60;;
70367;SDS011;57789;53.868;10.728;2023-08-01T13:46:14;2.50;;;1.20;;
70367;SDS011;57789;53.868;10.728;2023-08-01T13:48:41;2.20;;;1.70;;
70367;SDS011;57789;53.868;10.728;2023-08-01T13:51:11;2.30;;;1.40;;
70367;SDS011;57789;53.868;10.728;2023-08-01T13:53:40;1.47;;;0.80;;
70367;SDS011;57789;53.868;10.728;2023-08-01T13:56:09;2.77;;;0.77;;
70367;SDS011;57789;53.868;10.728;2023-08-01T13:58:39;3.07;;;0.90;;
70367;SDS011;57789;53.868;10.728;2023-08-01T14:01:05;2.03;;;1.13;;
70367;SDS011;57789;53.868;10.728;2023-08-01T14:03:36;0.93;;;0.70;;
70367;SDS011;57789;53.868;10.728;2023-08-01T14:06:09;4.63;;;0.90;;
70367;SDS011;57789;53.868;10.728;2023-08-01T14:08:40;1.67;;;0.80;;
70367;SDS011;57789;53.868;10.728;2023-08-01T14:11:07;0.83;;;0.70;;
70367;SDS011;57789;53.868;10.728;2023-08-01T14:13:34;1.57;;;1.17;;
70367;SDS011;57789;53.868;10.728;2023-08-01T14:16:01;2.47;;;1.67;;
70367;SDS011;57789;53.868;10.728;2023-08-01T14:18:27;1.83;;;0.83;;
70367;SDS011;57789;53.868;10.728;2023-08-01T14:20:53;4.20;;;1.10;;
70367;SDS011;57789;53.868;10.728;2023-08-01T14:23:19;1.20;;;1.00;;
70367;SDS011;57789;53.868;10.728;2023-08-01T14:25:45;3.77;;;1.37;;
70367;SDS011;57789;53.868;10.728;2023-08-01T14:28:11;1.90;;;0.60;;
70367;SDS011;57789;53.868;10.728;2023-08-01T14:30:37;1.00;;;0.70;;
70367;SDS011;57789;53.868;10.728;2023-08-01T14:33:03;0.90;;;0.70;;